sensor_id;sensor_type;location;lat;lon;timestamp;temperature;humidity
76936;DHT22;65881;52.438;16.744;2023-03-01T00:01:34;-4.20;89.60
76936;DHT22;65881;52.438;16.744;2023-03-01T00:04:16;-4.20;89.10
76936;DHT22;65881;52.438;16.744;2023-03-01T00:06:47;-4.30;88.90
76936;DHT22;65881;52.438;16.744;2023-03-01T00:09:14;-4.30;89.20
76936;DHT22;65881;52.438;16.744;2023-03-01T00:11:58;-4.30;89.50
76936;DHT22;65881;52.438;16.744;2023-03-01T00:14:24;-4.30;89.10
76936;DHT22;65881;52.438;16.744;2023-03-01T00:16:49;-4.30;88.90
76936;DHT22;65881;52.438;16.744;2023-03-01T00:19:17;-4.40;88.70
76936;DHT22;65881;52.438;16.744;2023-03-01T00:21:43;-4.30;89.20
76936;DHT22;65881;52.438;16.744;2023-03-01T00:24:09;-4.30;89.60
76936;DHT22;65881;52.438;16.744;2023-03-01T00:26:35;-4.30;90.10
76936;DHT22;65881;52.438;16.744;2023-03-01T00:29:01;-4.30;90.30
76936;DHT22;65881;52.438;16.744;2023-03-01T00:31:29;-4.30;90.30
76936;DHT22;65881;52.438;16.744;2023-03-01T00:33:58;-4.30;91.20
76936;DHT22;65881;52.438;16.744;2023-03-01T00:36:26;-4.30;90.90
76936;DHT22;65881;52.438;16.744;2023-03-01T00:38:52;-4.30;90.90
76936;DHT22;65881;52.438;16.744;2023-03-01T00:41:24;-4.40;90.40
76936;DHT22;65881;52.438;16.744;2023-03-01T00:44:02;-4.40;89.90
76936;DHT22;65881;52.438;16.744;2023-03-01T00:46:35;-4.40;89.90
76936;DHT22;65881;52.438;16.744;2023-03-01T00:49:00;-4.40;90.00
76936;DHT22;65881;52.438;16.744;2023-03-01T00:51:50;-4.40;90.50
76936;DHT22;65881;52.438;16.744;2023-03-01T00:54:15;-4.40;90.90
76936;DHT22;65881;52.438;16.744;2023-03-01T00:56:41;-4.40;91.00
76936;DHT22;65881;52.438;16.744;2023-03-01T00:59:07;-4.40;90.90
76936;DHT22;65881;52.438;16.744;2023-03-01T01:01:32;-4.40;90.90
76936;DHT22;65881;52.438;16.744;2023-03-01T01:04:03;-4.50;91.00
76936;DHT22;65881;52.438;16.744;2023-03-01T01:06:31;-4.50;90.60
76936;DHT22;65881;52.438;16.744;2023-03-01T01:08:58;-4.50;90.70
76936;DHT22;65881;52.438;16.744;2023-03-01T01:11:28;-4.40;90.90
76936;DHT22;65881;52.438;16.744;2023-03-01T01:13:54;-4.50;90.50
76936;DHT22;65881;52.438;16.744;2023-03-01T01:16:23;-4.40;90.20
76936;DHT22;65881;52.438;16.744;2023-03-01T01:18:49;-4.40;90.30
76936;DHT22;65881;52.438;16.744;2023-03-01T01:21:18;-4.50;89.70
76936;DHT22;65881;52.438;16.744;2023-03-01T01:23:46;-4.60;89.40
76936;DHT22;65881;52.438;16.744;2023-03-01T01:26:14;-4.60;89.40
76936;DHT22;65881;52.438;16.744;2023-03-01T01:28:40;-4.60;89.40
76936;DHT22;65881;52.438;16.744;2023-03-01T01:31:06;-4.60;89.50
76936;DHT22;65881;52.438;16.744;2023-03-01T01:33:33;-4.60;89.60
76936;DHT22;65881;52.438;16.744;2023-03-01T01:35:59;-4.60;89.80
76936;DHT22;65881;52.438;16.744;2023-03-01T01:38:25;-4.60;89.20
76936;DHT22;65881;52.438;16.744;2023-03-01T01:40:51;-4.60;89.10
76936;DHT22;65881;52.438;16.744;2023-03-01T01:45:48;-4.60;90.20
76936;DHT22;65881;52.438;16.744;2023-03-01T01:48:20;-4.70;89.70
76936;DHT22;65881;52.438;16.744;2023-03-01T01:50:57;-4.70;90.10
76936;DHT22;65881;52.438;16.744;2023-03-01T01:53:24;-4.70;90.30
76936;DHT22;65881;52.438;16.744;2023-03-01T01:56:10;-4.60;90.90
76936;DHT22;65881;52.438;16.744;2023-03-01T01:58:43;-4.70;90.50
76936;DHT22;65881;52.438;16.744;2023-03-01T02:01:10;-4.60;90.20
76936;DHT22;65881;52.438;16.744;2023-03-01T02:03:50;-4.60;90.50
76936;DHT22;65881;52.438;16.744;2023-03-01T02:06:35;-4.60;90.30
76936;DHT22;65881;52.438;16.744;2023-03-01T02:09:07;-4.60;89.70
76936;DHT22;65881;52.438;16.744;2023-03-01T02:11:34;-4.60;89.80
76936;DHT22;65881;52.438;16.744;2023-03-01T02:14:03;-4.60;90.50
76936;DHT22;65881;52.438;16.744;2023-03-01T02:16:29;-4.60;90.40
76936;DHT22;65881;52.438;16.744;2023-03-01T02:18:58;-4.60;90.90
76936;DHT22;65881;52.438;16.744;2023-03-01T02:24:36;-4.60;90.80
76936;DHT22;65881;52.438;16.744;2023-03-01T02:27:09;-4.60;90.60
76936;DHT22;65881;52.438;16.744;2023-03-01T02:29:35;-4.70;90.70
76936;DHT22;65881;52.438;16.744;2023-03-01T02:32:02;-4.80;90.80
76936;DHT22;65881;52.438;16.744;2023-03-01T02:34:31;-4.80;91.50
76936;DHT22;65881;52.438;16.744;2023-03-01T02:37:01;-4.80;91.90
76936;DHT22;65881;52.438;16.744;2023-03-01T02:39:42;-4.80;92.40
76936;DHT22;65881;52.438;16.744;2023-03-01T02:42:12;-4.80;92.60
76936;DHT22;65881;52.438;16.744;2023-03-01T02:44:38;-4.90;92.50
76936;DHT22;65881;52.438;16.744;2023-03-01T02:47:04;-4.90;92.60
76936;DHT22;65881;52.438;16.744;2023-03-01T02:49:34;-4.90;92.20
76936;DHT22;65881;52.438;16.744;2023-03-01T02:54:41;-5.00;92.20
76936;DHT22;65881;52.438;16.744;2023-03-01T02:57:09;-5.00;92.10
76936;DHT22;65881;52.438;16.744;2023-03-01T02:59:37;-5.00;92.50
76936;DHT22;65881;52.438;16.744;2023-03-01T03:02:31;-5.00;92.40
76936;DHT22;65881;52.438;16.744;2023-03-01T03:05:12;-5.00;92.10
76936;DHT22;65881;52.438;16.744;2023-03-01T03:07:42;-5.00;91.40
76936;DHT22;65881;52.438;16.744;2023-03-01T03:10:13;-5.00;91.20
76936;DHT22;65881;52.438;16.744;2023-03-01T03:12:39;-5.00;91.30
76936;DHT22;65881;52.438;16.744;2023-03-01T03:15:06;-5.00;91.80
76936;DHT22;65881;52.438;16.744;2023-03-01T03:17:38;-5.00;91.40
76936;DHT22;65881;52.438;16.744;2023-03-01T03:20:06;-5.00;91.50
76936;DHT22;65881;52.438;16.744;2023-03-01T03:22:37;-5.10;91.00
76936;DHT22;65881;52.438;16.744;2023-03-01T03:25:03;-5.10;91.40
76936;DHT22;65881;52.438;16.744;2023-03-01T03:27:29;-5.10;91.40
76936;DHT22;65881;52.438;16.744;2023-03-01T03:29:54;-5.10;90.70
76936;DHT22;65881;52.438;16.744;2023-03-01T03:32:20;-5.10;90.50
76936;DHT22;65881;52.438;16.744;2023-03-01T03:34:46;-5.10;91.10
76936;DHT22;65881;52.438;16.744;2023-03-01T03:37:11;-5.10;91.30
76936;DHT22;65881;52.438;16.744;2023-03-01T03:39:57;-5.10;91.50
76936;DHT22;65881;52.438;16.744;2023-03-01T03:42:24;-5.10;91.30
76936;DHT22;65881;52.438;16.744;2023-03-01T03:44:49;-5.10;91.20
76936;DHT22;65881;52.438;16.744;2023-03-01T03:47:15;-5.10;91.50
76936;DHT22;65881;52.438;16.744;2023-03-01T03:49:41;-5.20;91.80
76936;DHT22;65881;52.438;16.744;2023-03-01T03:52:06;-5.20;91.60
76936;DHT22;65881;52.438;16.744;2023-03-01T03:54:40;-5.20;91.10
76936;DHT22;65881;52.438;16.744;2023-03-01T03:57:06;-5.20;91.20
76936;DHT22;65881;52.438;16.744;2023-03-01T03:59:32;-5.20;91.20
76936;DHT22;65881;52.438;16.744;2023-03-01T04:01:58;-5.20;91.40
76936;DHT22;65881;52.438;16.744;2023-03-01T04:04:33;-5.20;91.40
76936;DHT22;65881;52.438;16.744;2023-03-01T04:07:13;-5.20;91.00
76936;DHT22;65881;52.438;16.744;2023-03-01T04:09:40;-5.20;91.80
76936;DHT22;65881;52.438;16.744;2023-03-01T04:12:08;-5.10;92.40
76936;DHT22;65881;52.438;16.744;2023-03-01T04:14:34;-5.10;92.40
76936;DHT22;65881;52.438;16.744;2023-03-01T04:17:02;-5.20;91.80
76936;DHT22;65881;52.438;16.744;2023-03-01T04:19:31;-5.20;91.50
76936;DHT22;65881;52.438;16.744;2023-03-01T04:22:07;-5.20;91.60
76936;DHT22;65881;52.438;16.744;2023-03-01T04:24:37;-5.20;91.90
76936;DHT22;65881;52.438;16.744;2023-03-01T04:27:03;-5.20;92.20
76936;DHT22;65881;52.438;16.744;2023-03-01T04:29:28;-5.20;92.00
76936;DHT22;65881;52.438;16.744;2023-03-01T04:31:54;-5.20;91.80
76936;DHT22;65881;52.438;16.744;2023-03-01T04:34:20;-5.20;91.60
76936;DHT22;65881;52.438;16.744;2023-03-01T04:36:46;-5.20;91.80
76936;DHT22;65881;52.438;16.744;2023-03-01T04:39:11;-5.20;91.40
76936;DHT22;65881;52.438;16.744;2023-03-01T04:41:38;-5.20;91.60
76936;DHT22;65881;52.438;16.744;2023-03-01T04:44:08;-5.30;92.00
76936;DHT22;65881;52.438;16.744;2023-03-01T04:46:35;-5.20;92.20
76936;DHT22;65881;52.438;16.744;2023-03-01T04:49:01;-5.30;91.90
76936;DHT22;65881;52.438;16.744;2023-03-01T04:51:27;-5.30;91.50
76936;DHT22;65881;52.438;16.744;2023-03-01T04:53:54;-5.30;91.30
76936;DHT22;65881;52.438;16.744;2023-03-01T04:56:20;-5.40;91.30
76936;DHT22;65881;52.438;16.744;2023-03-01T04:58:48;-5.40;91.10
76936;DHT22;65881;52.438;16.744;2023-03-01T05:01:17;-5.40;91.30
76936;DHT22;65881;52.438;16.744;2023-03-01T05:03:45;-5.40;91.50
76936;DHT22;65881;52.438;16.744;2023-03-01T05:06:11;-5.40;91.70
76936;DHT22;65881;52.438;16.744;2023-03-01T05:08:38;-5.40;91.70
76936;DHT22;65881;52.438;16.744;2023-03-01T05:11:04;-5.40;91.70
76936;DHT22;65881;52.438;16.744;2023-03-01T05:13:31;-5.40;91.70
76936;DHT22;65881;52.438;16.744;2023-03-01T05:15:59;-5.40;91.40
76936;DHT22;65881;52.438;16.744;2023-03-01T05:18:27;-5.40;91.60
76936;DHT22;65881;52.438;16.744;2023-03-01T05:20:55;-5.40;91.70
76936;DHT22;65881;52.438;16.744;2023-03-01T05:23:24;-5.40;91.70
76936;DHT22;65881;52.438;16.744;2023-03-01T05:25:50;-5.40;91.30
76936;DHT22;65881;52.438;16.744;2023-03-01T05:28:18;-5.40;91.50
76936;DHT22;65881;52.438;16.744;2023-03-01T05:30:45;-5.50;91.60
76936;DHT22;65881;52.438;16.744;2023-03-01T05:33:11;-5.60;91.40
76936;DHT22;65881;52.438;16.744;2023-03-01T05:35:42;-5.60;91.20
76936;DHT22;65881;52.438;16.744;2023-03-01T05:38:12;-5.60;92.20
76936;DHT22;65881;52.438;16.744;2023-03-01T05:40:45;-5.60;92.00
76936;DHT22;65881;52.438;16.744;2023-03-01T05:43:12;-5.70;91.90
76936;DHT22;65881;52.438;16.744;2023-03-01T05:45:39;-5.70;92.40
76936;DHT22;65881;52.438;16.744;2023-03-01T05:48:06;-5.60;92.00
76936;DHT22;65881;52.438;16.744;2023-03-01T05:50:35;-5.60;92.10
76936;DHT22;65881;52.438;16.744;2023-03-01T05:53:06;-5.60;92.20
76936;DHT22;65881;52.438;16.744;2023-03-01T05:55:34;-5.60;92.10
76936;DHT22;65881;52.438;16.744;2023-03-01T05:58:06;-5.60;91.70
76936;DHT22;65881;52.438;16.744;2023-03-01T06:00:33;-5.60;91.50
76936;DHT22;65881;52.438;16.744;2023-03-01T06:03:00;-5.60;90.90
76936;DHT22;65881;52.438;16.744;2023-03-01T06:05:26;-5.60;91.50
76936;DHT22;65881;52.438;16.744;2023-03-01T06:07:52;-5.60;92.50
76936;DHT22;65881;52.438;16.744;2023-03-01T06:10:20;-5.50;92.70
76936;DHT22;65881;52.438;16.744;2023-03-01T06:12:46;-5.40;93.00
76936;DHT22;65881;52.438;16.744;2023-03-01T06:15:13;-5.10;95.50
76936;DHT22;65881;52.438;16.744;2023-03-01T06:17:41;-4.90;96.50
76936;DHT22;65881;52.438;16.744;2023-03-01T06:20:21;-4.90;93.70
76936;DHT22;65881;52.438;16.744;2023-03-01T06:22:48;-4.90;92.60
76936;DHT22;65881;52.438;16.744;2023-03-01T06:25:17;-4.90;92.20
76936;DHT22;65881;52.438;16.744;2023-03-01T06:27:43;-4.80;92.00
76936;DHT22;65881;52.438;16.744;2023-03-01T06:30:11;-4.80;91.50
76936;DHT22;65881;52.438;16.744;2023-03-01T06:32:38;-4.80;91.70
76936;DHT22;65881;52.438;16.744;2023-03-01T06:35:10;-4.70;91.70
76936;DHT22;65881;52.438;16.744;2023-03-01T06:37:41;-4.60;91.40
76936;DHT22;65881;52.438;16.744;2023-03-01T06:40:13;-4.60;91.30
76936;DHT22;65881;52.438;16.744;2023-03-01T06:42:41;-4.60;91.30
76936;DHT22;65881;52.438;16.744;2023-03-01T06:45:11;-4.60;91.50
76936;DHT22;65881;52.438;16.744;2023-03-01T06:47:41;-4.50;91.70
76936;DHT22;65881;52.438;16.744;2023-03-01T06:50:12;-4.40;91.70
76936;DHT22;65881;52.438;16.744;2023-03-01T06:52:55;-4.30;91.80
76936;DHT22;65881;52.438;16.744;2023-03-01T06:55:24;-4.20;91.70
76936;DHT22;65881;52.438;16.744;2023-03-01T07:01:30;-4.10;91.20
76936;DHT22;65881;52.438;16.744;2023-03-01T07:04:21;-4.00;91.80
76936;DHT22;65881;52.438;16.744;2023-03-01T07:06:57;-4.00;91.70
76936;DHT22;65881;52.438;16.744;2023-03-01T07:09:46;-4.00;91.20
76936;DHT22;65881;52.438;16.744;2023-03-01T07:19:32;-3.60;91.10
76936;DHT22;65881;52.438;16.744;2023-03-01T07:25:15;-3.40;90.80
76936;DHT22;65881;52.438;16.744;2023-03-01T07:27:41;-3.20;90.50
76936;DHT22;65881;52.438;16.744;2023-03-01T07:30:07;-3.20;90.20
76936;DHT22;65881;52.438;16.744;2023-03-01T07:32:33;-3.10;89.60
76936;DHT22;65881;52.438;16.744;2023-03-01T07:34:59;-3.10;89.70
76936;DHT22;65881;52.438;16.744;2023-03-01T07:37:25;-3.00;89.70
76936;DHT22;65881;52.438;16.744;2023-03-01T07:39:51;-2.90;89.90
76936;DHT22;65881;52.438;16.744;2023-03-01T07:42:16;-2.80;90.10
76936;DHT22;65881;52.438;16.744;2023-03-01T07:44:42;-2.70;89.30
76936;DHT22;65881;52.438;16.744;2023-03-01T07:47:08;-2.60;89.00
76936;DHT22;65881;52.438;16.744;2023-03-01T07:49:59;-2.50;88.90
76936;DHT22;65881;52.438;16.744;2023-03-01T07:53:02;-2.40;88.30
76936;DHT22;65881;52.438;16.744;2023-03-01T07:59:11;-2.10;89.00
76936;DHT22;65881;52.438;16.744;2023-03-01T08:01:39;-1.90;88.60
76936;DHT22;65881;52.438;16.744;2023-03-01T08:04:05;-1.70;88.20
76936;DHT22;65881;52.438;16.744;2023-03-01T08:06:34;-1.50;87.70
76936;DHT22;65881;52.438;16.744;2023-03-01T08:09:01;-1.30;86.70
76936;DHT22;65881;52.438;16.744;2023-03-01T08:11:27;-1.10;85.70
76936;DHT22;65881;52.438;16.744;2023-03-01T08:13:55;-1.10;85.50
76936;DHT22;65881;52.438;16.744;2023-03-01T08:16:23;-0.70;84.30
76936;DHT22;65881;52.438;16.744;2023-03-01T08:18:52;-0.60;83.80
76936;DHT22;65881;52.438;16.744;2023-03-01T08:21:56;-0.50;82.50
76936;DHT22;65881;52.438;16.744;2023-03-01T08:24:23;-0.10;81.90
76936;DHT22;65881;52.438;16.744;2023-03-01T08:26:49;0.00;80.70
76936;DHT22;65881;52.438;16.744;2023-03-01T08:29:15;0.00;80.40
76936;DHT22;65881;52.438;16.744;2023-03-01T08:31:41;0.00;81.30
76936;DHT22;65881;52.438;16.744;2023-03-01T08:34:09;0.00;82.60
76936;DHT22;65881;52.438;16.744;2023-03-01T08:36:40;0.50;81.30
76936;DHT22;65881;52.438;16.744;2023-03-01T08:39:10;0.80;79.30
76936;DHT22;65881;52.438;16.744;2023-03-01T08:41:37;1.20;78.00
76936;DHT22;65881;52.438;16.744;2023-03-01T08:44:04;1.50;75.50
76936;DHT22;65881;52.438;16.744;2023-03-01T08:46:35;1.90;74.80
76936;DHT22;65881;52.438;16.744;2023-03-01T08:49:13;2.10;72.80
76936;DHT22;65881;52.438;16.744;2023-03-01T08:51:39;2.20;73.40
76936;DHT22;65881;52.438;16.744;2023-03-01T08:54:07;2.50;72.80
76936;DHT22;65881;52.438;16.744;2023-03-01T08:56:33;2.90;73.10
76936;DHT22;65881;52.438;16.744;2023-03-01T08:59:01;3.20;70.80
76936;DHT22;65881;52.438;16.744;2023-03-01T09:01:30;3.20;70.80
76936;DHT22;65881;52.438;16.744;2023-03-01T09:03:56;3.50;69.40
76936;DHT22;65881;52.438;16.744;2023-03-01T09:06:21;3.70;68.00
76936;DHT22;65881;52.438;16.744;2023-03-01T09:08:50;3.90;65.30
76936;DHT22;65881;52.438;16.744;2023-03-01T09:11:19;4.00;65.80
76936;DHT22;65881;52.438;16.744;2023-03-01T09:13:45;4.20;65.20
76936;DHT22;65881;52.438;16.744;2023-03-01T09:16:14;4.40;63.60
76936;DHT22;65881;52.438;16.744;2023-03-01T09:18:40;4.40;64.20
76936;DHT22;65881;52.438;16.744;2023-03-01T09:21:08;3.90;63.30
76936;DHT22;65881;52.438;16.744;2023-03-01T09:23:36;4.00;63.90
76936;DHT22;65881;52.438;16.744;2023-03-01T09:26:07;4.20;63.20
76936;DHT22;65881;52.438;16.744;2023-03-01T09:28:38;4.40;62.20
76936;DHT22;65881;52.438;16.744;2023-03-01T09:31:06;4.50;61.60
76936;DHT22;65881;52.438;16.744;2023-03-01T09:33:33;4.50;61.10
76936;DHT22;65881;52.438;16.744;2023-03-01T09:36:09;4.50;61.60
76936;DHT22;65881;52.438;16.744;2023-03-01T09:38:37;4.60;61.40
76936;DHT22;65881;52.438;16.744;2023-03-01T09:41:31;4.50;62.40
76936;DHT22;65881;52.438;16.744;2023-03-01T09:44:10;4.20;62.80
76936;DHT22;65881;52.438;16.744;2023-03-01T09:46:43;4.40;62.80
76936;DHT22;65881;52.438;16.744;2023-03-01T09:49:23;4.40;62.80
76936;DHT22;65881;52.438;16.744;2023-03-01T09:54:27;4.10;63.80
76936;DHT22;65881;52.438;16.744;2023-03-01T10:00:10;4.40;63.30
76936;DHT22;65881;52.438;16.744;2023-03-01T10:02:58;4.50;61.50
76936;DHT22;65881;52.438;16.744;2023-03-01T10:08:33;4.70;61.50
76936;DHT22;65881;52.438;16.744;2023-03-01T10:11:03;4.90;59.70
76936;DHT22;65881;52.438;16.744;2023-03-01T10:13:45;4.90;60.50
76936;DHT22;65881;52.438;16.744;2023-03-01T10:16:50;5.00;58.50
76936;DHT22;65881;52.438;16.744;2023-03-01T10:19:24;5.30;59.00
76936;DHT22;65881;52.438;16.744;2023-03-01T10:21:52;5.50;59.00
76936;DHT22;65881;52.438;16.744;2023-03-01T10:24:19;5.60;58.20
76936;DHT22;65881;52.438;16.744;2023-03-01T10:27:00;5.60;57.40
76936;DHT22;65881;52.438;16.744;2023-03-01T10:29:49;5.80;57.40
76936;DHT22;65881;52.438;16.744;2023-03-01T10:32:20;6.10;56.10
76936;DHT22;65881;52.438;16.744;2023-03-01T10:34:48;6.30;55.90
76936;DHT22;65881;52.438;16.744;2023-03-01T10:37:19;6.30;54.90
76936;DHT22;65881;52.438;16.744;2023-03-01T10:42:34;6.00;55.70
76936;DHT22;65881;52.438;16.744;2023-03-01T10:50:47;5.90;56.50
76936;DHT22;65881;52.438;16.744;2023-03-01T10:57:10;5.90;56.90
76936;DHT22;65881;52.438;16.744;2023-03-01T10:59:38;6.30;56.20
76936;DHT22;65881;52.438;16.744;2023-03-01T11:02:42;6.40;55.70
76936;DHT22;65881;52.438;16.744;2023-03-01T11:07:53;6.40;57.10
76936;DHT22;65881;52.438;16.744;2023-03-01T11:10:28;6.70;56.40
76936;DHT22;65881;52.438;16.744;2023-03-01T11:13:18;7.00;56.10
76936;DHT22;65881;52.438;16.744;2023-03-01T11:16:01;6.80;56.10
76936;DHT22;65881;52.438;16.744;2023-03-01T11:18:29;6.50;57.20
76936;DHT22;65881;52.438;16.744;2023-03-01T11:20:56;6.40;57.00
76936;DHT22;65881;52.438;16.744;2023-03-01T11:23:24;6.60;55.60
76936;DHT22;65881;52.438;16.744;2023-03-01T11:25:54;6.60;57.40
76936;DHT22;65881;52.438;16.744;2023-03-01T11:28:21;6.90;56.20
76936;DHT22;65881;52.438;16.744;2023-03-01T11:30:53;7.00;55.70
76936;DHT22;65881;52.438;16.744;2023-03-01T11:33:43;7.00;56.30
76936;DHT22;65881;52.438;16.744;2023-03-01T11:38:45;6.60;56.80
76936;DHT22;65881;52.438;16.744;2023-03-01T11:41:20;6.80;57.50
76936;DHT22;65881;52.438;16.744;2023-03-01T11:44:23;7.20;56.80
76936;DHT22;65881;52.438;16.744;2023-03-01T11:52:33;7.40;55.60
76936;DHT22;65881;52.438;16.744;2023-03-01T11:55:51;7.30;56.70
76936;DHT22;65881;52.438;16.744;2023-03-01T11:58:24;6.70;57.00
76936;DHT22;65881;52.438;16.744;2023-03-01T12:09:06;6.70;58.50
76936;DHT22;65881;52.438;16.744;2023-03-01T12:20:18;7.20;57.70
76936;DHT22;65881;52.438;16.744;2023-03-01T12:29:25;7.00;56.90
76936;DHT22;65881;52.438;16.744;2023-03-01T12:32:06;7.00;57.60
76936;DHT22;65881;52.438;16.744;2023-03-01T12:42:38;7.40;55.70
76936;DHT22;65881;52.438;16.744;2023-03-01T12:48:06;6.90;58.10
76936;DHT22;65881;52.438;16.744;2023-03-01T12:50:47;7.00;58.70
76936;DHT22;65881;52.438;16.744;2023-03-01T12:56:32;7.40;58.40
76936;DHT22;65881;52.438;16.744;2023-03-01T12:59:24;7.50;56.70
76936;DHT22;65881;52.438;16.744;2023-03-01T13:10:18;7.20;56.50
76936;DHT22;65881;52.438;16.744;2023-03-01T13:17:56;6.90;59.00
76936;DHT22;65881;52.438;16.744;2023-03-01T13:28:50;7.00;58.60
76936;DHT22;65881;52.438;16.744;2023-03-01T13:38:57;6.70;59.00
76936;DHT22;65881;52.438;16.744;2023-03-01T13:47:07;6.80;59.50
76936;DHT22;65881;52.438;16.744;2023-03-01T13:49:59;6.80;58.30
76936;DHT22;65881;52.438;16.744;2023-03-01T13:52:45;6.90;58.90
76936;DHT22;65881;52.438;16.744;2023-03-01T13:57:48;6.90;58.10
76936;DHT22;65881;52.438;16.744;2023-03-01T14:03:04;6.90;58.40
76936;DHT22;65881;52.438;16.744;2023-03-01T14:05:31;6.90;58.90
76936;DHT22;65881;52.438;16.744;2023-03-01T14:07:57;7.00;59.20
76936;DHT22;65881;52.438;16.744;2023-03-01T14:10:28;6.90;57.80
76936;DHT22;65881;52.438;16.744;2023-03-01T14:13:32;6.80;58.50
76936;DHT22;65881;52.438;16.744;2023-03-01T14:16:28;6.70;59.70
76936;DHT22;65881;52.438;16.744;2023-03-01T14:19:15;6.60;58.90
76936;DHT22;65881;52.438;16.744;2023-03-01T14:21:42;6.60;60.00
76936;DHT22;65881;52.438;16.744;2023-03-01T14:24:21;6.60;59.60
76936;DHT22;65881;52.438;16.744;2023-03-01T14:26:48;6.50;60.00
76936;DHT22;65881;52.438;16.744;2023-03-01T14:29:37;6.50;59.90
76936;DHT22;65881;52.438;16.744;2023-03-01T14:34:44;6.40;59.70
76936;DHT22;65881;52.438;16.744;2023-03-01T14:37:16;6.50;59.30
76936;DHT22;65881;52.438;16.744;2023-03-01T14:39:43;6.50;59.90
76936;DHT22;65881;52.438;16.744;2023-03-01T14:42:09;6.50;60.50
76936;DHT22;65881;52.438;16.744;2023-03-01T14:44:35;6.50;60.00
76936;DHT22;65881;52.438;16.744;2023-03-01T14:47:03;6.50;59.80
76936;DHT22;65881;52.438;16.744;2023-03-01T14:49:30;6.50;59.80
76936;DHT22;65881;52.438;16.744;2023-03-01T14:52:02;6.50;60.40
76936;DHT22;65881;52.438;16.744;2023-03-01T14:54:54;6.40;59.60
76936;DHT22;65881;52.438;16.744;2023-03-01T14:57:24;6.40;60.10
76936;DHT22;65881;52.438;16.744;2023-03-01T14:59:52;6.30;60.50
76936;DHT22;65881;52.438;16.744;2023-03-01T15:02:23;6.40;60.40
76936;DHT22;65881;52.438;16.744;2023-03-01T15:04:52;6.30;59.70
76936;DHT22;65881;52.438;16.744;2023-03-01T15:07:18;6.20;60.60
76936;DHT22;65881;52.438;16.744;2023-03-01T15:09:46;6.20;64.20
76936;DHT22;65881;52.438;16.744;2023-03-01T15:14:55;6.30;60.80
76936;DHT22;65881;52.438;16.744;2023-03-01T15:19:57;6.20;62.10
76936;DHT22;65881;52.438;16.744;2023-03-01T15:22:30;6.20;61.50
76936;DHT22;65881;52.438;16.744;2023-03-01T15:24:58;6.20;61.80
76936;DHT22;65881;52.438;16.744;2023-03-01T15:27:25;6.10;62.30
76936;DHT22;65881;52.438;16.744;2023-03-01T15:29:59;6.00;62.60
76936;DHT22;65881;52.438;16.744;2023-03-01T15:32:35;5.90;62.00
76936;DHT22;65881;52.438;16.744;2023-03-01T15:38:29;5.80;63.10
76936;DHT22;65881;52.438;16.744;2023-03-01T15:40:56;5.80;64.50
76936;DHT22;65881;52.438;16.744;2023-03-01T15:43:48;5.70;64.40
76936;DHT22;65881;52.438;16.744;2023-03-01T15:49:01;5.50;64.40
76936;DHT22;65881;52.438;16.744;2023-03-01T15:51:44;5.50;64.50
76936;DHT22;65881;52.438;16.744;2023-03-01T15:54:26;5.50;64.70
76936;DHT22;65881;52.438;16.744;2023-03-01T15:56:53;5.30;64.60
76936;DHT22;65881;52.438;16.744;2023-03-01T15:59:34;5.30;64.00
76936;DHT22;65881;52.438;16.744;2023-03-01T16:02:01;5.20;64.20
76936;DHT22;65881;52.438;16.744;2023-03-01T16:04:29;5.10;64.20
76936;DHT22;65881;52.438;16.744;2023-03-01T16:07:01;5.00;64.70
76936;DHT22;65881;52.438;16.744;2023-03-01T16:09:35;5.00;65.10
76936;DHT22;65881;52.438;16.744;2023-03-01T16:12:05;4.90;65.30
76936;DHT22;65881;52.438;16.744;2023-03-01T16:14:32;4.90;65.30
76936;DHT22;65881;52.438;16.744;2023-03-01T16:17:07;4.70;65.50
76936;DHT22;65881;52.438;16.744;2023-03-01T16:19:36;4.60;65.80
76936;DHT22;65881;52.438;16.744;2023-03-01T16:22:16;4.50;66.10
76936;DHT22;65881;52.438;16.744;2023-03-01T16:24:52;4.50;66.00
76936;DHT22;65881;52.438;16.744;2023-03-01T16:27:18;4.40;65.90
76936;DHT22;65881;52.438;16.744;2023-03-01T16:29:49;4.30;66.30
76936;DHT22;65881;52.438;16.744;2023-03-01T16:32:15;4.20;66.20
76936;DHT22;65881;52.438;16.744;2023-03-01T16:34:41;4.20;66.40
76936;DHT22;65881;52.438;16.744;2023-03-01T16:37:08;4.10;66.60
76936;DHT22;65881;52.438;16.744;2023-03-01T16:39:34;4.00;67.00
76936;DHT22;65881;52.438;16.744;2023-03-01T16:42:00;3.90;67.20
76936;DHT22;65881;52.438;16.744;2023-03-01T16:44:26;3.80;67.20
76936;DHT22;65881;52.438;16.744;2023-03-01T16:46:52;3.80;67.20
76936;DHT22;65881;52.438;16.744;2023-03-01T16:49:18;3.70;67.10
76936;DHT22;65881;52.438;16.744;2023-03-01T16:51:44;3.70;66.90
76936;DHT22;65881;52.438;16.744;2023-03-01T16:54:10;3.70;67.00
76936;DHT22;65881;52.438;16.744;2023-03-01T16:56:36;3.60;67.10
76936;DHT22;65881;52.438;16.744;2023-03-01T16:59:04;3.50;67.30
76936;DHT22;65881;52.438;16.744;2023-03-01T17:01:30;3.50;67.60
76936;DHT22;65881;52.438;16.744;2023-03-01T17:04:03;3.40;68.00
76936;DHT22;65881;52.438;16.744;2023-03-01T17:06:29;3.30;68.30
76936;DHT22;65881;52.438;16.744;2023-03-01T17:08:57;3.30;69.50
76936;DHT22;65881;52.438;16.744;2023-03-01T17:11:23;3.30;68.90
76936;DHT22;65881;52.438;16.744;2023-03-01T17:13:48;3.10;69.10
76936;DHT22;65881;52.438;16.744;2023-03-01T17:16:16;3.10;69.50
76936;DHT22;65881;52.438;16.744;2023-03-01T17:18:43;3.00;69.80
76936;DHT22;65881;52.438;16.744;2023-03-01T17:21:09;2.90;70.40
76936;DHT22;65881;52.438;16.744;2023-03-01T17:23:54;2.80;70.90
76936;DHT22;65881;52.438;16.744;2023-03-01T17:26:50;2.80;71.20
76936;DHT22;65881;52.438;16.744;2023-03-01T17:29:16;2.70;71.70
76936;DHT22;65881;52.438;16.744;2023-03-01T17:32:01;2.60;72.30
76936;DHT22;65881;52.438;16.744;2023-03-01T17:34:27;2.50;72.60
76936;DHT22;65881;52.438;16.744;2023-03-01T17:36:53;2.50;72.90
76936;DHT22;65881;52.438;16.744;2023-03-01T17:39:19;2.40;73.30
76936;DHT22;65881;52.438;16.744;2023-03-01T17:41:53;2.40;73.40
76936;DHT22;65881;52.438;16.744;2023-03-01T17:44:18;2.30;73.70
76936;DHT22;65881;52.438;16.744;2023-03-01T17:46:44;2.30;73.80
76936;DHT22;65881;52.438;16.744;2023-03-01T17:49:10;2.20;74.10
76936;DHT22;65881;52.438;16.744;2023-03-01T17:51:36;2.20;74.20
76936;DHT22;65881;52.438;16.744;2023-03-01T17:54:02;2.20;74.30
76936;DHT22;65881;52.438;16.744;2023-03-01T17:56:28;2.10;74.30
76936;DHT22;65881;52.438;16.744;2023-03-01T17:58:54;2.10;74.60
76936;DHT22;65881;52.438;16.744;2023-03-01T18:01:21;2.10;74.60
76936;DHT22;65881;52.438;16.744;2023-03-01T18:03:50;2.10;74.60
76936;DHT22;65881;52.438;16.744;2023-03-01T18:06:19;2.00;74.60
76936;DHT22;65881;52.438;16.744;2023-03-01T18:08:45;2.00;74.90
76936;DHT22;65881;52.438;16.744;2023-03-01T18:11:12;2.00;74.90
76936;DHT22;65881;52.438;16.744;2023-03-01T18:13:38;1.90;75.10
76936;DHT22;65881;52.438;16.744;2023-03-01T18:16:09;1.80;75.30